Time;durP1;ratioP1;P1;durP2;ratioP2;P2;SDS_P1;SDS_P2;PMS_P1;PMS_P2;Temp;Humidity;BMP_temperature;BMP_pressure;BME280_temperature;BME280_humidity;BME280_pressure;Samples;Min_cycle;Max_cycle;Signal;HPM_P1;HPM_P2
2023/09/11 00:02:17;;;;;;;;;;;;;;;16.50;54.57;101160.53;5071049;28;1070;-65
2023/09/11 00:04:43;;;;;;;;;;;;;;;16.39;54.53;101159.63;5063469;28;1979;-65
2023/09/11 00:07:08;;;;;;;;;;;;;;;16.38;54.18;101160.72;5065745;28;1241;-66
2023/09/11 00:09:34;;;;;;;;;;;;;;;16.34;54.59;101163.16;5060046;28;1260;-65
2023/09/11 00:11:59;;;;;;;;;;;;;;;17.48;55.81;101159.13;5064271;28;1047;-66
2023/09/11 00:14:25;;;;;;;;;;;;;;;17.24;55.86;101156.03;5060925;28;1186;-66
2023/09/11 00:16:50;;;;;;;;;;;;;;;16.89;55.73;101155.59;5064980;28;1238;-66
2023/09/11 00:19:16;;;;;;;;;;;;;;;16.74;55.38;101153.53;5069508;28;1099;-66
2023/09/11 00:21:41;;;;;;;;;;;;;;;16.65;55.03;101160.63;5071257;28;1086;-66
2023/09/11 00:24:07;;;;;;;;;;;;;;;16.52;54.73;101161.09;5056355;28;2380;-67
2023/09/11 00:26:32;;;;;;;;;;;;;;;16.45;54.70;101152.25;5057110;28;1992;-67
2023/09/11 00:28:58;;;;;;;;;;;;;;;16.43;54.27;101155.28;5068480;28;1074;-69
2023/09/11 00:31:24;;;;;;;;;;;;;;;16.34;54.34;101152.19;5063333;28;1190;-68
2023/09/11 00:33:49;;;;;;;;;;;;;;;16.25;54.44;101151.81;5075665;28;1031;-68
2023/09/11 00:36:15;;;;;;;;;;;;;;;17.18;56.08;101152.44;5075976;28;1018;-68
2023/09/11 00:38:40;;;;;;;;;;;;;;;17.42;55.89;101152.78;5076811;28;1108;-68
2023/09/11 00:41:06;;;;;;;;;;;;;;;16.96;55.73;101144.38;5061469;28;983;-67
2023/09/11 00:43:31;;;;;;;;;;;;;;;16.83;55.44;101142.06;5065083;28;1067;-68
2023/09/11 00:45:57;;;;;;;;;;;;;;;16.66;55.14;101143.09;5053188;28;1976;-68
2023/09/11 00:48:22;;;;;;;;;;;;;;;16.56;55.11;101140.25;5049960;28;1191;-69
2023/09/11 00:50:48;;;;;;;;;;;;;;;16.50;54.52;101141.31;5076712;28;1051;-68
2023/09/11 00:53:13;;;;;;;;;;;;;;;16.46;54.31;101138.25;5072337;28;1254;-67
2023/09/11 00:55:39;;;;;;;;;;;;;;;16.92;56.07;101144.06;5056347;28;2607;-68
2023/09/11 00:58:05;;;;;;;;;;;;;;;17.33;56.11;101135.16;5065110;28;1019;-69
2023/09/11 01:00:30;;;;;;;;;;;;;;;16.93;55.85;101140.22;5074034;28;1086;-66
2023/09/11 01:02:57;;;;;;;;;;;;;;;16.77;55.53;101142.03;5065225;28;1097;-69
2023/09/11 01:05:23;;;;;;;;;;;;;;;16.63;55.28;101143.59;5069139;28;1952;-68
2023/09/11 01:07:48;;;;;;;;;;;;;;;16.49;55.16;101145.97;5032714;28;1479;-66
2023/09/11 01:10:14;;;;;;;;;;;;;;;16.45;54.59;101141.28;5058469;28;1110;-67
2023/09/11 01:12:39;;;;;;;;;;;;;;;16.42;54.29;101132.50;5038454;28;1118;-68
2023/09/11 01:15:05;;;;;;;;;;;;;;;16.32;54.45;101140.63;5060189;28;1125;-67
2023/09/11 01:17:32;;;;;;;;;;;;;;;16.95;56.01;101134.47;5057779;28;1145;-67
2023/09/11 01:20:18;;;;;;;;;;;;;;;17.31;55.78;101131.06;5062410;28;1078;-67
2023/09/11 01:22:44;;;;;;;;;;;;;;;16.81;55.70;101133.28;5057577;28;1050;-67
2023/09/11 01:25:15;;;;;;;;;;;;;;;16.72;55.25;101135.69;5070125;28;2733;-67
2023/09/11 01:27:59;;;;;;;;;;;;;;;16.62;54.89;101135.63;5074248;28;979;-68
2023/09/11 01:30:24;;;;;;;;;;;;;;;16.53;54.81;101138.03;5055667;28;864;-67
2023/09/11 01:32:50;;;;;;;;;;;;;;;16.37;54.55;101135.19;5072423;28;1071;-69
2023/09/11 01:35:16;;;;;;;;;;;;;;;16.41;54.22;101135.47;5057730;28;1345;-67
2023/09/11 01:37:41;;;;;;;;;;;;;;;16.33;54.30;101128.56;5072425;28;1102;-66
2023/09/11 01:40:07;;;;;;;;;;;;;;;17.43;55.78;101123.38;5055729;28;985;-67
2023/09/11 01:42:40;;;;;;;;;;;;;;;17.29;55.60;101134.03;5055535;28;1091;-67
2023/09/11 01:45:06;;;;;;;;;;;;;;;16.85;55.98;101131.66;5055940;28;1909;-69
2023/09/11 01:47:32;;;;;;;;;;;;;;;16.70;55.50;101127.69;5021520;28;1101;-67
2023/09/11 01:49:57;;;;;;;;;;;;;;;16.60;55.14;101136.69;5037807;28;1085;-68
2023/09/11 01:52:23;;;;;;;;;;;;;;;16.54;54.84;101131.47;5050840;28;1091;-67
2023/09/11 01:54:48;;;;;;;;;;;;;;;16.42;54.67;101131.66;5055059;28;2271;-68
2023/09/11 01:57:14;;;;;;;;;;;;;;;16.46;54.09;101123.72;5023925;28;1396;-67
2023/09/11 01:59:40;;;;;;;;;;;;;;;16.87;56.01;101132.19;5040898;28;1095;-66
2023/09/11 02:02:06;;;;;;;;;;;;;;;17.49;55.67;101140.69;5053697;28;1222;-67
2023/09/11 02:04:32;;;;;;;;;;;;;;;16.90;55.71;101120.69;5055456;28;1906;-67
2023/09/11 02:06:57;;;;;;;;;;;;;;;16.76;55.38;101121.16;5072266;28;984;-67
2023/09/11 02:09:23;;;;;;;;;;;;;;;16.62;54.99;101122.75;5057529;28;1022;-67
2023/09/11 02:11:48;;;;;;;;;;;;;;;16.55;54.56;101128.44;5074659;28;1022;-67
2023/09/11 02:14:14;;;;;;;;;;;;;;;16.49;54.62;101125.94;5057320;28;1102;-68
2023/09/11 02:16:39;;;;;;;;;;;;;;;16.38;54.39;101119.53;5061417;28;1023;-67
2023/09/11 02:19:05;;;;;;;;;;;;;;;16.37;54.31;101129.69;5061978;28;902;-66
2023/09/11 02:21:30;;;;;;;;;;;;;;;16.85;55.91;101126.16;5055738;28;1146;-67
2023/09/11 02:23:56;;;;;;;;;;;;;;;17.60;55.46;101128.66;5060415;28;2386;-68
2023/09/11 02:26:21;;;;;;;;;;;;;;;17.02;55.91;101124.06;5040095;28;1972;-67
2023/09/11 02:28:47;;;;;;;;;;;;;;;16.76;55.63;101115.66;5075672;28;1134;-67
2023/09/11 02:31:14;;;;;;;;;;;;;;;16.68;54.95;101118.91;5069474;28;1091;-67
2023/09/11 02:33:39;;;;;;;;;;;;;;;16.60;54.97;101122.16;5047029;28;1463;-67
2023/09/11 02:36:05;;;;;;;;;;;;;;;16.48;54.60;101124.28;5071819;28;1084;-67
2023/09/11 02:38:31;;;;;;;;;;;;;;;16.56;55.48;101126.53;5055024;28;1074;-67
2023/09/11 02:40:57;;;;;;;;;;;;;;;17.43;55.53;101123.38;5055051;28;965;-67
2023/09/11 02:43:22;;;;;;;;;;;;;;;16.93;55.84;101126.50;5058483;28;840;-67
2023/09/11 02:45:48;;;;;;;;;;;;;;;16.70;55.57;101122.22;5040617;28;1984;-67
2023/09/11 02:48:13;;;;;;;;;;;;;;;16.60;55.28;101122.16;5074953;28;1102;-67
2023/09/11 02:50:39;;;;;;;;;;;;;;;16.54;54.91;101125.97;5053727;28;1125;-66
2023/09/11 02:53:13;;;;;;;;;;;;;;;16.46;54.58;101126.47;5064760;28;1021;-67
2023/09/11 02:55:38;;;;;;;;;;;;;;;16.39;54.23;101115.72;5052889;28;2506;-67
2023/09/11 02:58:04;;;;;;;;;;;;;;;16.52;55.12;101115.25;5058864;28;1010;-67
2023/09/11 03:00:32;;;;;;;;;;;;;;;17.60;55.46;101112.16;5062861;28;1136;-68
2023/09/11 03:02:58;;;;;;;;;;;;;;;17.02;55.98;101121.31;5066895;28;1194;-68
2023/09/11 03:05:23;;;;;;;;;;;;;;;16.80;55.71;101112.38;5040488;28;1910;-68
2023/09/11 03:07:50;;;;;;;;;;;;;;;16.60;55.25;101114.75;5074108;28;884;-67
2023/09/11 03:10:15;;;;;;;;;;;;;;;16.58;54.94;101111.44;5046908;28;1221;-67
2023/09/11 03:12:41;;;;;;;;;;;;;;;16.50;54.76;101111.13;5078079;28;1031;-66
2023/09/11 03:15:06;;;;;;;;;;;;;;;16.43;54.29;101109.41;5055870;28;1482;-66
2023/09/11 03:17:32;;;;;;;;;;;;;;;16.38;54.27;101114.06;5061829;28;1242;-66
2023/09/11 03:19:57;;;;;;;;;;;;;;;16.82;55.66;101112.97;5055762;28;1145;-66
2023/09/11 03:22:24;;;;;;;;;;;;;;;17.48;55.53;101120.66;5040134;28;1159;-66
2023/09/11 03:24:50;;;;;;;;;;;;;;;16.96;55.93;101113.31;5060236;28;2486;-67
2023/09/11 03:27:15;;;;;;;;;;;;;;;16.79;55.44;101108.81;5057892;28;1060;-66
2023/09/11 03:29:41;;;;;;;;;;;;;;;16.63;55.26;101115.31;5058865;28;1024;-63
2023/09/11 03:32:06;;;;;;;;;;;;;;;16.55;54.94;101113.88;5067469;28;893;-64
2023/09/11 03:34:32;;;;;;;;;;;;;;;16.44;54.71;101113.00;5059723;28;1426;-67
2023/09/11 03:36:58;;;;;;;;;;;;;;;16.37;54.76;101113.22;5068588;28;1091;-60
2023/09/11 03:39:23;;;;;;;;;;;;;;;16.29;54.49;101115.66;5057678;28;1293;-60
2023/09/11 03:41:49;;;;;;;;;;;;;;;16.82;55.61;101118.44;5056465;28;1214;-61
2023/09/11 03:44:15;;;;;;;;;;;;;;;17.48;55.48;101126.13;5067956;28;1033;-62
2023/09/11 03:46:40;;;;;;;;;;;;;;;16.95;55.91;101123.47;5057498;28;1901;-59
2023/09/11 03:49:06;;;;;;;;;;;;;;;16.71;55.49;101118.38;5059282;28;1301;-59
2023/09/11 03:51:32;;;;;;;;;;;;;;;16.55;55.36;101125.72;5057004;28;1237;-59
2023/09/11 03:53:58;;;;;;;;;;;;;;;16.46;54.98;101127.28;5060354;28;2370;-60
2023/09/11 03:56:25;;;;;;;;;;;;;;;16.42;54.68;101124.25;5053755;28;1224;-60
2023/09/11 03:58:52;;;;;;;;;;;;;;;16.43;54.49;101128.63;5059475;28;1133;-61
2023/09/11 04:01:17;;;;;;;;;;;;;;;16.32;54.47;101128.84;5054499;28;1273;-63
2023/09/11 04:03:43;;;;;;;;;;;;;;;17.24;56.22;101128.56;5058382;28;1277;-60
2023/09/11 04:06:08;;;;;;;;;;;;;;;16.99;56.19;101115.53;5076358;28;1910;-62
2023/09/11 04:08:34;;;;;;;;;;;;;;;16.80;55.81;101132.44;5069492;28;929;-63
2023/09/11 04:11:01;;;;;;;;;;;;;;;16.60;55.95;101133.16;5052713;28;1098;-61
2023/09/11 04:13:26;;;;;;;;;;;;;;;16.60;55.23;101138.63;5056002;28;977;-61
2023/09/11 04:15:52;;;;;;;;;;;;;;;16.52;55.14;101142.72;5058531;28;1521;-61
2023/09/11 04:18:17;;;;;;;;;;;;;;;16.41;55.02;101140.97;5045728;28;1123;-59
2023/09/11 04:20:43;;;;;;;;;;;;;;;16.36;54.70;101139.03;5069620;28;1170;-59
2023/09/11 04:23:09;;;;;;;;;;;;;;;17.42;56.11;101138.22;5051663;28;1007;-59
2023/09/11 04:25:34;;;;;;;;;;;;;;;17.16;56.25;101145.56;5038869;28;2413;-59
2023/09/11 04:28:00;;;;;;;;;;;;;;;16.85;56.01;101139.88;5039196;28;1311;-61
2023/09/11 04:30:25;;;;;;;;;;;;;;;16.71;55.36;101134.84;5052644;28;1289;-60
2023/09/11 04:32:52;;;;;;;;;;;;;;;16.52;55.31;101142.72;5052187;28;1206;-60
2023/09/11 04:35:18;;;;;;;;;;;;;;;16.47;55.36;101136.38;5050508;28;1162;-60
2023/09/11 04:37:45;;;;;;;;;;;;;;;16.46;54.71;101137.44;5075223;28;1170;-60
2023/09/11 04:40:11;;;;;;;;;;;;;;;16.38;54.95;101142.34;5048112;28;1233;-59
2023/09/11 04:42:36;;;;;;;;;;;;;;;17.36;54.68;101140.13;5042181;28;1364;-60
2023/09/11 04:45:03;;;;;;;;;;;;;;;16.47;54.72;101133.63;5055976;28;1906;-61
2023/09/11 04:47:32;;;;;;;;;;;;;;;16.26;53.23;101133.47;5038636;28;1197;-61
2023/09/11 04:49:59;;;;;;;;;;;;;;;16.11;51.91;101128.66;5049597;28;1175;-63
2023/09/11 04:52:24;;;;;;;;;;;;;;;16.11;50.62;101133.34;5045034;28;1240;-62
2023/09/11 04:54:50;;;;;;;;;;;;;;;16.56;52.91;101140.25;5047662;28;2659;-61
2023/09/11 04:57:16;;;;;;;;;;;;;;;16.55;52.52;101142.19;5044706;28;1434;-64
2023/09/11 04:59:42;;;;;;;;;;;;;;;17.95;53.99;101147.16;5058284;28;1118;-63
2023/09/11 05:02:10;;;;;;;;;;;;;;;17.05;54.28;101150.16;5040311;28;1309;-65
2023/09/11 05:04:36;;;;;;;;;;;;;;;16.75;52.51;101148.91;5049859;28;1906;-66
2023/09/11 05:07:02;;;;;;;;;;;;;;;16.62;51.16;101147.44;5038435;28;1508;-64
2023/09/11 05:09:30;;;;;;;;;;;;;;;16.60;50.20;101152.34;5046380;28;1173;-61
2023/09/11 05:11:55;;;;;;;;;;;;;;;16.43;49.47;101142.34;5056456;28;1111;-59
2023/09/11 05:14:21;;;;;;;;;;;;;;;16.43;49.05;101147.03;5057666;28;1059;-58
2023/09/11 05:16:47;;;;;;;;;;;;;;;17.26;51.67;101145.59;5075974;28;1154;-63
2023/09/11 05:19:12;;;;;;;;;;;;;;;16.92;51.82;101146.81;5054120;28;1090;-59
2023/09/11 05:21:38;;;;;;;;;;;;;;;16.72;50.59;101135.69;5038428;28;1285;-59
2023/09/11 05:24:03;;;;;;;;;;;;;;;16.61;49.47;101137.56;5055997;28;2251;-63
2023/09/11 05:26:29;;;;;;;;;;;;;;;16.51;49.01;101129.22;5073994;28;1909;-58
2023/09/11 05:28:55;;;;;;;;;;;;;;;16.43;48.68;101139.63;5063776;28;1102;-60
2023/09/11 05:31:20;;;;;;;;;;;;;;;16.42;48.07;101137.97;5058716;28;1175;-59
2023/09/11 05:33:46;;;;;;;;;;;;;;;16.38;47.99;101139.59;5063894;28;1039;-59
2023/09/11 05:36:12;;;;;;;;;;;;;;;17.23;50.06;101140.63;5073144;28;1201;-58
2023/09/11 05:38:37;;;;;;;;;;;;;;;16.79;49.98;101146.44;5075918;28;1055;-60
2023/09/11 05:41:02;;;;;;;;;;;;;;;16.76;49.54;101143.13;5075399;28;1039;-60
2023/09/11 05:43:28;;;;;;;;;;;;;;;17.10;50.99;101142.78;5071821;28;1002;-60
2023/09/11 05:45:54;;;;;;;;;;;;;;;16.84;49.87;101139.03;5068514;28;1905;-59
2023/09/11 05:48:20;;;;;;;;;;;;;;;16.73;49.08;101137.34;5067234;28;988;-61
2023/09/11 05:50:45;;;;;;;;;;;;;;;16.73;48.27;101143.66;5043873;28;1181;-63
2023/09/11 05:53:11;;;;;;;;;;;;;;;16.63;48.04;101151.81;5063956;28;1241;-62
2023/09/11 05:55:37;;;;;;;;;;;;;;;16.67;47.55;101152.94;5058924;28;2557;-62
2023/09/11 05:58:02;;;;;;;;;;;;;;;17.43;49.28;101151.72;5075926;28;1034;-63
2023/09/11 06:00:28;;;;;;;;;;;;;;;16.89;49.58;101158.34;5070563;28;1022;-63
2023/09/11 06:02:54;;;;;;;;;;;;;;;16.80;48.68;101164.56;5055221;28;1070;-65
2023/09/11 06:05:19;;;;;;;;;;;;;;;16.68;48.27;101162.03;5060007;28;1887;-65
2023/09/11 06:07:45;;;;;;;;;;;;;;;16.68;47.82;101162.03;5067919;28;1186;-65
2023/09/11 06:10:11;;;;;;;;;;;;;;;16.78;48.02;101162.09;5069921;28;1042;-65
2023/09/11 06:12:37;;;;;;;;;;;;;;;17.19;49.26;101161.50;5067627;28;1016;-63
2023/09/11 06:15:04;;;;;;;;;;;;;;;16.89;48.79;101174.00;5074985;28;1134;-64
2023/09/11 06:17:29;;;;;;;;;;;;;;;16.71;48.42;101167.81;5074763;28;1031;-61
2023/09/11 06:19:55;;;;;;;;;;;;;;;16.71;47.81;101167.00;5069750;28;1070;-61
2023/09/11 06:22:20;;;;;;;;;;;;;;;16.60;47.67;101168.84;5067497;28;1031;-64
2023/09/11 06:24:46;;;;;;;;;;;;;;;17.43;48.43;101168.19;5055867;28;2281;-60
2023/09/11 06:27:13;;;;;;;;;;;;;;;16.98;48.88;101172.38;5066292;28;1100;-64
2023/09/11 06:29:38;;;;;;;;;;;;;;;16.87;48.43;101176.13;5062136;28;1249;-61
2023/09/11 06:32:04;;;;;;;;;;;;;;;17.51;49.02;101163.28;5072752;28;1046;-62
2023/09/11 06:34:30;;;;;;;;;;;;;;;17.06;48.88;101163.63;5077011;28;1054;-63
2023/09/11 06:36:56;;;;;;;;;;;;;;;17.00;48.27;101170.22;5066515;28;1026;-63
2023/09/11 06:39:21;;;;;;;;;;;;;;;16.83;47.93;101164.03;5075144;28;1103;-62
2023/09/11 06:41:47;;;;;;;;;;;;;;;16.78;47.48;101167.59;5079064;28;1039;-62
2023/09/11 06:44:13;;;;;;;;;;;;;;;16.73;47.31;101176.63;5049483;28;1134;-62
2023/09/11 06:46:39;;;;;;;;;;;;;;;16.89;47.43;101174.00;5079038;28;1982;-60
2023/09/11 06:49:04;;;;;;;;;;;;;;;17.13;48.81;101176.31;5075209;28;1039;-62
2023/09/11 06:51:30;;;;;;;;;;;;;;;16.94;48.57;101179.50;5068796;28;1223;-64
2023/09/11 06:53:55;;;;;;;;;;;;;;;16.89;47.59;101174.81;5064913;28;2519;-62
2023/09/11 06:56:21;;;;;;;;;;;;;;;16.86;47.29;101180.81;5073855;28;1329;-62
2023/09/11 06:58:46;;;;;;;;;;;;;;;16.75;46.98;101188.16;5061281;28;1030;-61
2023/09/11 07:01:13;;;;;;;;;;;;;;;16.64;47.24;101191.94;5069290;28;1143;-62
2023/09/11 07:03:39;;;;;;;;;;;;;;;17.15;47.51;101193.34;5061592;28;1365;-61
2023/09/11 07:06:04;;;;;;;;;;;;;;;17.21;48.55;101197.81;5058780;28;1910;-63
2023/09/11 07:08:30;;;;;;;;;;;;;;;16.91;48.65;101200.13;5072447;28;1186;-61
2023/09/11 07:10:55;;;;;;;;;;;;;;;16.82;48.00;101198.09;5078704;28;999;-62
2023/09/11 07:13:21;;;;;;;;;;;;;;;16.79;47.47;101202.19;5078211;28;1088;-62
2023/09/11 07:15:55;;;;;;;;;;;;;;;16.71;47.15;101198.00;5068427;28;1103;-62
2023/09/11 07:18:21;;;;;;;;;;;;;;;17.42;48.23;101194.03;5072071;28;1036;-60
2023/09/11 07:20:46;;;;;;;;;;;;;;;17.02;48.40;101189.16;5066594;28;1105;-61
2023/09/11 07:23:12;;;;;;;;;;;;;;;16.97;47.63;101183.63;5064862;28;1154;-60
2023/09/11 07:25:37;;;;;;;;;;;;;;;16.92;46.91;101184.44;5062604;28;2542;-60
2023/09/11 07:28:03;;;;;;;;;;;;;;;16.85;46.65;101195.63;5077724;28;1069;-60
2023/09/11 07:30:29;;;;;;;;;;;;;;;16.81;46.36;101188.19;5078026;28;1083;-57
2023/09/11 07:32:55;;;;;;;;;;;;;;;16.71;46.48;101181.53;5068457;28;1007;-62
2023/09/11 07:35:21;;;;;;;;;;;;;;;16.68;46.43;101184.81;5066381;28;1038;-63
2023/09/11 07:37:48;;;;;;;;;;;;;;;17.78;48.11;101185.91;5076406;28;1218;-62
2023/09/11 07:40:13;;;;;;;;;;;;;;;17.10;48.72;101186.75;5067335;28;1046;-63
2023/09/11 07:42:39;;;;;;;;;;;;;;;16.98;48.13;101186.13;5071102;28;1067;-64
2023/09/11 07:45:06;;;;;;;;;;;;;;;16.97;47.16;101187.25;5059423;28;1978;-59
2023/09/11 07:47:31;;;;;;;;;;;;;;;16.90;47.22;101186.63;5071085;28;1198;-58
2023/09/11 07:49:57;;;;;;;;;;;;;;;16.83;46.82;101186.84;5068932;28;1174;-58
2023/09/11 07:52:22;;;;;;;;;;;;;;;16.74;46.93;101186.50;5073542;28;1115;-60
2023/09/11 07:54:48;;;;;;;;;;;;;;;16.86;46.47;101182.75;5057666;28;2554;-62
2023/09/11 07:57:13;;;;;;;;;;;;;;;17.30;48.18;101184.38;5045256;28;1020;-58
2023/09/11 07:59:39;;;;;;;;;;;;;;;17.02;48.30;101184.50;5068018;28;1055;-58
2023/09/11 08:02:05;;;;;;;;;;;;;;;16.89;47.56;101185.81;5073490;28;1166;-61
2023/09/11 08:04:30;;;;;;;;;;;;;;;16.91;47.25;101180.88;5057469;28;1063;-58
2023/09/11 08:06:56;;;;;;;;;;;;;;;16.84;46.69;101190.41;5057635;28;1909;-56
2023/09/11 08:09:21;;;;;;;;;;;;;;;17.69;47.76;101179.25;5067645;28;1070;-62
2023/09/11 08:11:47;;;;;;;;;;;;;;;17.47;48.69;101186.91;5073505;28;1097;-62
2023/09/11 08:14:12;;;;;;;;;;;;;;;17.21;48.33;101184.06;5068076;28;1103;-62
2023/09/11 08:16:38;;;;;;;;;;;;;;;17.05;47.88;101178.47;5063755;28;1154;-62
2023/09/11 08:19:04;;;;;;;;;;;;;;;17.00;47.04;101175.72;5066301;28;1094;-61
2023/09/11 08:21:30;;;;;;;;;;;;;;;16.97;46.94;101170.75;5063323;28;1209;-62
2023/09/11 08:23:55;;;;;;;;;;;;;;;16.83;46.71;101175.00;5067896;28;2429;-62
2023/09/11 08:26:21;;;;;;;;;;;;;;;16.86;46.44;101167.09;5073223;28;1971;-63
2023/09/11 08:28:46;;;;;;;;;;;;;;;17.57;47.53;101165.78;5057317;28;1058;-65
2023/09/11 08:31:12;;;;;;;;;;;;;;;17.19;47.92;101161.50;5070373;28;1020;-60
2023/09/11 08:33:37;;;;;;;;;;;;;;;16.97;47.82;101154.28;5056672;28;899;-60
2023/09/11 08:36:03;;;;;;;;;;;;;;;17.07;46.99;101161.75;5073292;28;1039;-61
2023/09/11 08:38:28;;;;;;;;;;;;;;;16.88;47.07;101158.56;5067257;28;1109;-63
2023/09/11 08:40:54;;;;;;;;;;;;;;;16.83;46.65;101153.88;5073438;28;1034;-58
2023/09/11 08:43:24;;;;;;;;;;;;;;;16.89;46.30;101146.53;5076741;28;996;-58
2023/09/11 08:45:50;;;;;;;;;;;;;;;16.81;46.41;101153.31;5066960;28;1914;-60
2023/09/11 08:48:15;;;;;;;;;;;;;;;16.80;46.27;101148.91;5067093;28;999;-60
2023/09/11 08:50:57;;;;;;;;;;;;;;;16.80;46.13;101145.34;5041176;28;1117;-58
2023/09/11 08:53:23;;;;;;;;;;;;;;;17.70;46.97;101139.66;5051001;28;1183;-60
2023/09/11 08:55:49;;;;;;;;;;;;;;;17.09;47.90;101152.09;5070048;28;2740;-60
2023/09/11 08:58:15;;;;;;;;;;;;;;;17.01;47.56;101144.41;5056255;28;968;-61
2023/09/11 09:00:40;;;;;;;;;;;;;;;16.90;47.01;101150.91;5038513;28;1225;-61
2023/09/11 09:03:06;;;;;;;;;;;;;;;16.78;46.97;101140.13;5039012;28;1047;-61
2023/09/11 09:05:31;;;;;;;;;;;;;;;17.45;47.79;101144.00;5075287;28;1976;-61
2023/09/11 09:07:57;;;;;;;;;;;;;;;17.16;47.82;101138.13;5075639;28;1106;-61
2023/09/11 09:10:22;;;;;;;;;;;;;;;16.96;47.65;101138.88;5053344;28;1126;-61
2023/09/11 09:12:48;;;;;;;;;;;;;;;17.00;47.02;101125.41;5058200;28;1107;-61
2023/09/11 09:15:14;;;;;;;;;;;;;;;16.94;46.60;101132.81;5057980;28;1055;-60
2023/09/11 09:17:39;;;;;;;;;;;;;;;17.82;47.30;101131.16;5076454;28;1031;-61
2023/09/11 09:20:05;;;;;;;;;;;;;;;17.26;47.85;101120.84;5070628;28;1150;-60
2023/09/11 09:22:31;;;;;;;;;;;;;;;17.10;47.68;101114.47;5070812;28;884;-60
2023/09/11 09:24:56;;;;;;;;;;;;;;;17.05;46.80;101112.53;5057203;28;2293;-61
2023/09/11 09:27:24;;;;;;;;;;;;;;;17.00;46.71;101115.25;5056282;28;1020;-59
2023/09/11 09:29:50;;;;;;;;;;;;;;;16.98;46.22;101106.44;5075137;28;1118;-62
2023/09/11 09:32:16;;;;;;;;;;;;;;;16.85;46.53;101102.25;5064215;28;1202;-59
2023/09/11 09:34:42;;;;;;;;;;;;;;;16.96;46.06;101108.66;5075132;28;1237;-65
2023/09/11 09:37:14;;;;;;;;;;;;;;;17.75;47.18;101103.94;5063416;28;1217;-64
2023/09/11 09:39:40;;;;;;;;;;;;;;;17.38;48.12;101088.47;5069252;28;1115;-58
2023/09/11 09:42:07;;;;;;;;;;;;;;;17.12;47.74;101089.47;5068964;28;1070;-58
2023/09/11 09:44:34;;;;;;;;;;;;;;;17.09;47.43;101088.91;5058042;28;1078;-59
2023/09/11 09:47:06;;;;;;;;;;;;;;;17.04;46.69;101088.91;5071408;28;1902;-59
2023/09/11 09:49:45;;;;;;;;;;;;;;;16.96;46.76;101083.09;5063762;28;1114;-57
2023/09/11 09:52:11;;;;;;;;;;;;;;;16.95;46.42;101090.50;5041549;28;1187;-58
2023/09/11 09:54:43;;;;;;;;;;;;;;;16.80;46.55;101093.97;5055740;28;2664;-59
2023/09/11 09:57:09;;;;;;;;;;;;;;;17.64;47.27;101090.44;5056462;28;1210;-63
2023/09/11 09:59:35;;;;;;;;;;;;;;;17.05;47.73;101063.06;5065014;28;1205;-61
2023/09/11 10:02:00;;;;;;;;;;;;;;;17.08;47.34;101084.53;5054935;28;1384;-61
2023/09/11 10:04:26;;;;;;;;;;;;;;;17.06;46.82;101083.97;5076027;28;971;-60
2023/09/11 10:06:52;;;;;;;;;;;;;;;16.99;46.64;101085.31;5062670;28;1901;-61
2023/09/11 10:09:18;;;;;;;;;;;;;;;16.98;46.42;101094.66;5068381;28;1198;-61
2023/09/11 10:11:44;;;;;;;;;;;;;;;16.92;46.33;101082.81;5058549;28;1501;-62
2023/09/11 10:14:10;;;;;;;;;;;;;;;16.85;46.31;101090.44;5068688;28;1050;-59
2023/09/11 10:16:35;;;;;;;;;;;;;;;16.90;46.03;101087.72;5059679;28;1154;-56
2023/09/11 10:19:01;;;;;;;;;;;;;;;16.83;46.14;101089.88;5070312;28;1096;-62
2023/09/11 10:21:27;;;;;;;;;;;;;;;17.59;46.98;101081.06;5076712;28;1038;-67
2023/09/11 10:23:52;;;;;;;;;;;;;;;17.21;47.87;101083.19;5059219;28;1886;-60
2023/09/11 10:26:23;;;;;;;;;;;;;;;17.04;47.34;101082.56;5076771;28;2001;-60
2023/09/11 10:28:49;;;;;;;;;;;;;;;16.98;47.19;101083.66;5079615;28;1062;-59
2023/09/11 10:31:23;;;;;;;;;;;;;;;16.98;46.53;101081.72;5074522;28;1019;-59
2023/09/11 10:33:50;;;;;;;;;;;;;;;16.88;46.54;101073.44;5067141;28;1163;-62
2023/09/11 10:36:15;;;;;;;;;;;;;;;16.85;46.32;101073.97;5060209;28;1046;-62
2023/09/11 10:38:41;;;;;;;;;;;;;;;16.97;46.22;101069.09;5059087;28;1050;-68
2023/09/11 10:41:07;;;;;;;;;;;;;;;16.86;46.09;101064.66;5069062;28;2122;-61
2023/09/11 10:43:33;;;;;;;;;;;;;;;17.55;47.10;101070.91;5067862;28;1138;-60
2023/09/11 10:46:15;;;;;;;;;;;;;;;17.20;47.52;101066.97;5058992;28;1987;-61
2023/09/11 10:48:40;;;;;;;;;;;;;;;17.03;47.31;101069.94;5078794;28;1105;-61
2023/09/11 10:51:06;;;;;;;;;;;;;;;16.99;46.81;101064.16;5059023;28;1086;-61
2023/09/11 10:53:31;;;;;;;;;;;;;;;16.95;46.69;101068.53;5072805;28;1063;-59
2023/09/11 10:55:57;;;;;;;;;;;;;;;16.90;46.33;101063.00;5054386;28;1027;-60
2023/09/11 10:58:23;;;;;;;;;;;;;;;16.81;46.53;101061.88;5066456;28;1123;-60
2023/09/11 11:00:52;;;;;;;;;;;;;;;17.74;47.46;101069.28;5059449;28;1201;-60
2023/09/11 11:03:17;;;;;;;;;;;;;;;17.24;48.01;101063.41;5059872;28;1040;-60
2023/09/11 11:05:43;;;;;;;;;;;;;;;17.12;47.76;101062.00;5040983;28;1983;-60
2023/09/11 11:08:08;;;;;;;;;;;;;;;16.98;47.55;101051.50;5040977;28;1075;-60
2023/09/11 11:10:34;;;;;;;;;;;;;;;16.97;47.03;101065.53;5066960;28;821;-57
2023/09/11 11:13:09;;;;;;;;;;;;;;;16.88;46.81;101059.69;5071507;28;1084;-58
2023/09/11 11:15:35;;;;;;;;;;;;;;;16.96;46.74;101059.22;5073230;28;1115;-61
2023/09/11 11:18:24;;;;;;;;;;;;;;;17.76;47.94;101044.22;5078592;28;1139;-58
2023/09/11 11:21:05;;;;;;;;;;;;;;;17.30;47.79;101050.50;5055739;28;1267;-61
2023/09/11 11:23:31;;;;;;;;;;;;;;;17.09;47.56;101039.44;5077187;28;899;-61
2023/09/11 11:26:03;;;;;;;;;;;;;;;17.03;47.19;101043.28;5078537;28;2102;-62
2023/09/11 11:28:36;;;;;;;;;;;;;;;16.97;46.95;101052.63;5069529;28;1313;-60
2023/09/11 11:31:02;;;;;;;;;;;;;;;17.02;46.53;101052.63;5076427;28;1281;-61
2023/09/11 11:33:27;;;;;;;;;;;;;;;16.97;46.38;101052.63;5078539;28;1066;-62
2023/09/11 11:35:53;;;;;;;;;;;;;;;16.86;46.52;101053.66;5054715;28;862;-57
2023/09/11 11:38:19;;;;;;;;;;;;;;;16.88;46.23;101056.94;5078161;28;1066;-58
2023/09/11 11:40:44;;;;;;;;;;;;;;;16.95;45.98;101046.56;5063941;28;1134;-64
2023/09/11 11:43:10;;;;;;;;;;;;;;;16.89;46.24;101047.66;5066803;28;1024;-64
2023/09/11 11:45:42;;;;;;;;;;;;;;;16.85;45.98;101044.56;5076602;28;1906;-66
2023/09/11 11:48:09;;;;;;;;;;;;;;;17.34;47.92;101037.88;5067512;28;842;-64
2023/09/11 11:50:35;;;;;;;;;;;;;;;17.06;48.14;101036.44;5064245;28;1070;-60
2023/09/11 11:53:00;;;;;;;;;;;;;;;17.03;47.79;101032.31;5078537;28;1060;-60
2023/09/11 11:55:26;;;;;;;;;;;;;;;17.16;47.74;101038.38;5078387;28;1030;-61
2023/09/11 11:57:53;;;;;;;;;;;;;;;17.10;47.43;101032.06;5068699;28;1146;-62
2023/09/11 12:00:19;;;;;;;;;;;;;;;17.04;47.35;101033.97;5060409;28;850;-61
2023/09/11 12:02:44;;;;;;;;;;;;;;;17.01;47.19;101023.53;5076194;28;1078;-60
2023/09/11 12:05:13;;;;;;;;;;;;;;;17.84;48.45;101035.44;5072988;28;1968;-61
2023/09/11 12:07:39;;;;;;;;;;;;;;;17.53;49.93;101029.94;5057549;28;1099;-60
2023/09/11 12:10:05;;;;;;;;;;;;;;;17.48;50.00;101029.09;5061405;28;1125;-59
2023/09/11 12:12:31;;;;;;;;;;;;;;;17.41;49.26;101026.63;5066082;28;1109;-62
2023/09/11 12:14:57;;;;;;;;;;;;;;;17.28;48.43;101023.28;5057745;28;1515;-63
2023/09/11 12:17:23;;;;;;;;;;;;;;;17.23;47.90;101023.28;5068250;28;1178;-64
2023/09/11 12:19:48;;;;;;;;;;;;;;;17.20;47.37;101020.25;5053653;28;1247;-63
2023/09/11 12:22:14;;;;;;;;;;;;;;;17.18;46.78;101016.94;5055636;28;1151;-64
2023/09/11 12:24:39;;;;;;;;;;;;;;;17.09;46.75;101013.91;5057349;28;1059;-60
2023/09/11 12:27:05;;;;;;;;;;;;;;;17.06;46.52;101015.28;5060643;28;1980;-67
2023/09/11 12:29:32;;;;;;;;;;;;;;;16.97;46.76;101011.41;5065419;28;1062;-66
2023/09/11 12:31:57;;;;;;;;;;;;;;;17.02;46.15;101011.41;5070862;28;1107;-65
2023/09/11 12:34:23;;;;;;;;;;;;;;;16.98;46.33;101007.56;5040277;28;929;-65
2023/09/11 12:36:48;;;;;;;;;;;;;;;16.93;46.22;101013.06;5067999;28;1026;-61
2023/09/11 12:39:14;;;;;;;;;;;;;;;17.51;47.65;101012.88;5070676;28;1058;-60
2023/09/11 12:41:39;;;;;;;;;;;;;;;17.19;47.65;101019.41;5059547;28;1143;-68
2023/09/11 12:44:05;;;;;;;;;;;;;;;17.21;46.95;101021.91;5055713;28;1158;-64